sensor_id;sensor_type;location;lat;lon;timestamp;P1;durP1;ratioP1;P2;durP2;ratioP2
72464;SDS011;60471;52.150;4.508;2023-09-19T00:00:31;12.52;;;2.42;;
72464;SDS011;60471;52.150;4.508;2023-09-19T00:03:00;11.98;;;2.47;;
72464;SDS011;60471;52.150;4.508;2023-09-19T00:05:26;11.48;;;2.33;;
72464;SDS011;60471;52.150;4.508;2023-09-19T00:07:55;12.70;;;2.70;;
72464;SDS011;60471;52.150;4.508;2023-09-19T00:10:26;11.88;;;2.42;;
72464;SDS011;60471;52.150;4.508;2023-09-19T00:12:57;14.55;;;2.58;;
72464;SDS011;60471;52.150;4.508;2023-09-19T00:15:31;15.45;;;2.50;;
72464;SDS011;60471;52.150;4.508;2023-09-19T00:18:04;13.20;;;2.75;;
72464;SDS011;60471;52.150;4.508;2023-09-19T00:20:37;17.00;;;3.30;;
72464;SDS011;60471;52.150;4.508;2023-09-19T00:23:04;17.17;;;2.60;;
72464;SDS011;60471;52.150;4.508;2023-09-19T00:25:31;11.20;;;2.03;;
72464;SDS011;60471;52.150;4.508;2023-09-19T00:28:01;17.15;;;2.85;;
72464;SDS011;60471;52.150;4.508;2023-09-19T00:30:28;16.13;;;2.97;;
72464;SDS011;60471;52.150;4.508;2023-09-19T00:32:54;15.90;;;2.85;;
72464;SDS011;60471;52.150;4.508;2023-09-19T00:35:20;13.23;;;2.45;;
72464;SDS011;60471;52.150;4.508;2023-09-19T00:37:51;13.30;;;2.45;;
72464;SDS011;60471;52.150;4.508;2023-09-19T00:40:19;14.88;;;2.95;;
72464;SDS011;60471;52.150;4.508;2023-09-19T00:42:47;23.00;;;3.08;;
72464;SDS011;60471;52.150;4.508;2023-09-19T00:45:16;16.00;;;2.50;;
72464;SDS011;60471;52.150;4.508;2023-09-19T00:47:44;16.65;;;3.28;;
72464;SDS011;60471;52.150;4.508;2023-09-19T00:50:15;14.77;;;2.58;;
72464;SDS011;60471;52.150;4.508;2023-09-19T00:52:48;16.95;;;2.42;;
72464;SDS011;60471;52.150;4.508;2023-09-19T00:55:19;12.85;;;2.80;;
72464;SDS011;60471;52.150;4.508;2023-09-19T00:57:45;16.60;;;2.90;;
72464;SDS011;60471;52.150;4.508;2023-09-19T01:00:15;15.85;;;2.95;;
72464;SDS011;60471;52.150;4.508;2023-09-19T01:02:46;16.58;;;2.85;;
72464;SDS011;60471;52.150;4.508;2023-09-19T01:05:14;16.67;;;2.88;;
72464;SDS011;60471;52.150;4.508;2023-09-19T01:07:41;16.48;;;3.35;;
72464;SDS011;60471;52.150;4.508;2023-09-19T01:10:08;15.15;;;3.03;;
72464;SDS011;60471;52.150;4.508;2023-09-19T01:15:51;15.90;;;3.20;;
72464;SDS011;60471;52.150;4.508;2023-09-19T01:18:47;19.33;;;3.35;;
72464;SDS011;60471;52.150;4.508;2023-09-19T01:27:42;13.60;;;2.65;;
72464;SDS011;60471;52.150;4.508;2023-09-19T01:30:39;18.75;;;3.08;;
72464;SDS011;60471;52.150;4.508;2023-09-19T01:35:40;17.55;;;3.42;;
72464;SDS011;60471;52.150;4.508;2023-09-19T01:38:06;19.08;;;3.13;;
72464;SDS011;60471;52.150;4.508;2023-09-19T01:40:37;19.33;;;3.05;;
72464;SDS011;60471;52.150;4.508;2023-09-19T01:43:15;19.90;;;3.40;;
72464;SDS011;60471;52.150;4.508;2023-09-19T01:46:16;17.95;;;3.70;;
72464;SDS011;60471;52.150;4.508;2023-09-19T01:49:11;18.73;;;3.40;;
72464;SDS011;60471;52.150;4.508;2023-09-19T01:51:56;17.27;;;3.05;;
72464;SDS011;60471;52.150;4.508;2023-09-19T01:54:50;20.05;;;3.35;;
72464;SDS011;60471;52.150;4.508;2023-09-19T01:57:29;18.23;;;3.17;;
72464;SDS011;60471;52.150;4.508;2023-09-19T02:00:04;21.88;;;3.35;;
72464;SDS011;60471;52.150;4.508;2023-09-19T02:02:38;16.67;;;2.83;;
72464;SDS011;60471;52.150;4.508;2023-09-19T02:05:10;21.33;;;3.15;;
72464;SDS011;60471;52.150;4.508;2023-09-19T02:07:38;21.60;;;3.42;;
72464;SDS011;60471;52.150;4.508;2023-09-19T02:10:06;18.13;;;3.20;;
72464;SDS011;60471;52.150;4.508;2023-09-19T02:12:33;15.88;;;2.85;;
72464;SDS011;60471;52.150;4.508;2023-09-19T02:15:00;14.65;;;3.10;;
72464;SDS011;60471;52.150;4.508;2023-09-19T02:17:26;14.27;;;2.92;;
72464;SDS011;60471;52.150;4.508;2023-09-19T02:19:53;18.08;;;3.20;;
72464;SDS011;60471;52.150;4.508;2023-09-19T02:22:21;18.20;;;3.30;;
72464;SDS011;60471;52.150;4.508;2023-09-19T02:24:48;14.38;;;3.28;;
72464;SDS011;60471;52.150;4.508;2023-09-19T02:27:14;19.30;;;3.45;;
72464;SDS011;60471;52.150;4.508;2023-09-19T02:29:42;17.10;;;3.10;;
72464;SDS011;60471;52.150;4.508;2023-09-19T02:32:08;19.85;;;3.30;;
72464;SDS011;60471;52.150;4.508;2023-09-19T02:34:37;16.60;;;2.97;;
72464;SDS011;60471;52.150;4.508;2023-09-19T02:37:05;14.95;;;2.72;;
72464;SDS011;60471;52.150;4.508;2023-09-19T02:39:32;15.55;;;3.03;;
72464;SDS011;60471;52.150;4.508;2023-09-19T02:41:58;13.38;;;2.58;;
72464;SDS011;60471;52.150;4.508;2023-09-19T02:44:24;15.57;;;3.28;;
72464;SDS011;60471;52.150;4.508;2023-09-19T02:46:51;16.73;;;2.60;;
72464;SDS011;60471;52.150;4.508;2023-09-19T02:49:17;15.93;;;2.70;;
72464;SDS011;60471;52.150;4.508;2023-09-19T02:51:44;18.77;;;3.17;;
72464;SDS011;60471;52.150;4.508;2023-09-19T02:54:11;14.13;;;2.75;;
72464;SDS011;60471;52.150;4.508;2023-09-19T02:56:37;15.85;;;2.70;;
72464;SDS011;60471;52.150;4.508;2023-09-19T02:59:04;17.30;;;3.42;;
72464;SDS011;60471;52.150;4.508;2023-09-19T03:01:31;17.83;;;2.70;;
72464;SDS011;60471;52.150;4.508;2023-09-19T03:03:58;12.82;;;2.42;;
72464;SDS011;60471;52.150;4.508;2023-09-19T03:06:24;14.98;;;3.03;;
72464;SDS011;60471;52.150;4.508;2023-09-19T03:08:50;17.38;;;3.10;;
72464;SDS011;60471;52.150;4.508;2023-09-19T03:11:17;17.33;;;3.00;;
72464;SDS011;60471;52.150;4.508;2023-09-19T03:13:50;16.25;;;3.40;;
72464;SDS011;60471;52.150;4.508;2023-09-19T03:16:19;19.10;;;3.10;;
72464;SDS011;60471;52.150;4.508;2023-09-19T03:18:48;19.42;;;3.30;;
72464;SDS011;60471;52.150;4.508;2023-09-19T03:21:15;13.77;;;3.03;;
72464;SDS011;60471;52.150;4.508;2023-09-19T03:23:43;14.55;;;2.45;;
72464;SDS011;60471;52.150;4.508;2023-09-19T03:26:12;13.00;;;2.60;;
72464;SDS011;60471;52.150;4.508;2023-09-19T03:28:41;16.20;;;2.88;;
72464;SDS011;60471;52.150;4.508;2023-09-19T03:31:09;19.10;;;3.08;;
72464;SDS011;60471;52.150;4.508;2023-09-19T03:33:36;14.82;;;2.58;;
72464;SDS011;60471;52.150;4.508;2023-09-19T03:36:03;18.73;;;2.65;;
72464;SDS011;60471;52.150;4.508;2023-09-19T03:38:33;16.60;;;2.67;;
72464;SDS011;60471;52.150;4.508;2023-09-19T03:41:00;15.82;;;2.75;;
72464;SDS011;60471;52.150;4.508;2023-09-19T03:43:27;15.20;;;2.63;;
72464;SDS011;60471;52.150;4.508;2023-09-19T03:45:54;12.52;;;2.85;;
72464;SDS011;60471;52.150;4.508;2023-09-19T03:48:20;13.82;;;2.90;;
72464;SDS011;60471;52.150;4.508;2023-09-19T03:50:47;15.48;;;2.55;;
72464;SDS011;60471;52.150;4.508;2023-09-19T03:53:13;11.85;;;2.25;;
72464;SDS011;60471;52.150;4.508;2023-09-19T03:55:40;13.95;;;2.42;;
72464;SDS011;60471;52.150;4.508;2023-09-19T03:58:06;11.68;;;2.03;;
72464;SDS011;60471;52.150;4.508;2023-09-19T04:00:32;17.30;;;2.72;;
72464;SDS011;60471;52.150;4.508;2023-09-19T04:03:00;14.27;;;2.78;;
72464;SDS011;60471;52.150;4.508;2023-09-19T04:05:31;17.13;;;2.67;;
72464;SDS011;60471;52.150;4.508;2023-09-19T04:07:58;12.52;;;2.35;;
72464;SDS011;60471;52.150;4.508;2023-09-19T04:10:24;12.10;;;2.40;;
72464;SDS011;60471;52.150;4.508;2023-09-19T04:12:51;13.90;;;2.60;;
72464;SDS011;60471;52.150;4.508;2023-09-19T04:15:22;17.58;;;2.53;;
72464;SDS011;60471;52.150;4.508;2023-09-19T04:17:50;15.23;;;2.78;;
72464;SDS011;60471;52.150;4.508;2023-09-19T04:20:18;20.25;;;3.17;;
72464;SDS011;60471;52.150;4.508;2023-09-19T04:22:51;17.65;;;3.28;;
72464;SDS011;60471;52.150;4.508;2023-09-19T04:25:17;11.13;;;2.20;;
72464;SDS011;60471;52.150;4.508;2023-09-19T04:27:44;15.70;;;2.65;;
72464;SDS011;60471;52.150;4.508;2023-09-19T04:30:11;15.48;;;2.58;;
72464;SDS011;60471;52.150;4.508;2023-09-19T04:32:38;12.82;;;2.63;;
72464;SDS011;60471;52.150;4.508;2023-09-19T04:35:08;12.57;;;2.90;;
72464;SDS011;60471;52.150;4.508;2023-09-19T04:37:39;12.98;;;2.42;;
72464;SDS011;60471;52.150;4.508;2023-09-19T04:40:07;11.47;;;2.27;;
72464;SDS011;60471;52.150;4.508;2023-09-19T04:42:39;14.93;;;2.90;;
72464;SDS011;60471;52.150;4.508;2023-09-19T04:45:06;18.33;;;2.70;;
72464;SDS011;60471;52.150;4.508;2023-09-19T04:47:34;17.13;;;2.63;;
72464;SDS011;60471;52.150;4.508;2023-09-19T04:50:00;13.13;;;2.50;;
72464;SDS011;60471;52.150;4.508;2023-09-19T04:52:26;11.50;;;2.22;;
72464;SDS011;60471;52.150;4.508;2023-09-19T04:54:56;14.18;;;2.40;;
72464;SDS011;60471;52.150;4.508;2023-09-19T04:57:22;15.05;;;3.10;;
72464;SDS011;60471;52.150;4.508;2023-09-19T04:59:49;12.55;;;2.55;;
72464;SDS011;60471;52.150;4.508;2023-09-19T05:02:16;18.30;;;2.90;;
72464;SDS011;60471;52.150;4.508;2023-09-19T05:04:42;12.88;;;3.17;;
72464;SDS011;60471;52.150;4.508;2023-09-19T05:07:08;14.65;;;2.92;;
72464;SDS011;60471;52.150;4.508;2023-09-19T05:09:34;13.20;;;2.40;;
72464;SDS011;60471;52.150;4.508;2023-09-19T05:12:03;17.77;;;3.10;;
72464;SDS011;60471;52.150;4.508;2023-09-19T05:14:29;17.20;;;2.88;;
72464;SDS011;60471;52.150;4.508;2023-09-19T05:16:55;17.83;;;3.30;;
72464;SDS011;60471;52.150;4.508;2023-09-19T05:19:22;21.08;;;3.10;;
72464;SDS011;60471;52.150;4.508;2023-09-19T05:21:48;14.05;;;3.00;;
72464;SDS011;60471;52.150;4.508;2023-09-19T05:24:14;12.68;;;2.80;;
72464;SDS011;60471;52.150;4.508;2023-09-19T05:26:42;11.88;;;2.53;;
72464;SDS011;60471;52.150;4.508;2023-09-19T05:29:08;19.05;;;3.05;;
72464;SDS011;60471;52.150;4.508;2023-09-19T05:31:35;14.07;;;2.72;;
72464;SDS011;60471;52.150;4.508;2023-09-19T05:34:05;16.90;;;2.75;;
72464;SDS011;60471;52.150;4.508;2023-09-19T05:36:32;17.42;;;3.08;;
72464;SDS011;60471;52.150;4.508;2023-09-19T05:38:59;13.77;;;2.60;;
72464;SDS011;60471;52.150;4.508;2023-09-19T05:41:25;16.15;;;3.20;;
72464;SDS011;60471;52.150;4.508;2023-09-19T05:43:51;14.07;;;2.60;;
72464;SDS011;60471;52.150;4.508;2023-09-19T05:46:18;17.02;;;3.00;;
72464;SDS011;60471;52.150;4.508;2023-09-19T05:48:44;21.13;;;3.30;;
72464;SDS011;60471;52.150;4.508;2023-09-19T05:51:13;18.55;;;3.20;;
72464;SDS011;60471;52.150;4.508;2023-09-19T05:53:39;16.38;;;3.17;;
72464;SDS011;60471;52.150;4.508;2023-09-19T05:56:09;19.00;;;3.33;;
72464;SDS011;60471;52.150;4.508;2023-09-19T05:58:36;21.15;;;3.25;;
72464;SDS011;60471;52.150;4.508;2023-09-19T06:01:04;24.27;;;3.47;;
72464;SDS011;60471;52.150;4.508;2023-09-19T06:03:30;17.60;;;3.70;;
72464;SDS011;60471;52.150;4.508;2023-09-19T06:05:57;18.42;;;3.38;;
72464;SDS011;60471;52.150;4.508;2023-09-19T06:08:23;14.52;;;3.80;;
72464;SDS011;60471;52.150;4.508;2023-09-19T06:10:49;16.13;;;3.22;;
72464;SDS011;60471;52.150;4.508;2023-09-19T06:13:18;16.83;;;3.00;;
72464;SDS011;60471;52.150;4.508;2023-09-19T06:15:45;18.88;;;3.58;;
72464;SDS011;60471;52.150;4.508;2023-09-19T06:18:15;16.10;;;3.80;;
72464;SDS011;60471;52.150;4.508;2023-09-19T06:20:48;18.35;;;3.75;;
72464;SDS011;60471;52.150;4.508;2023-09-19T06:23:16;17.45;;;3.30;;
72464;SDS011;60471;52.150;4.508;2023-09-19T06:25:43;16.38;;;3.10;;
72464;SDS011;60471;52.150;4.508;2023-09-19T06:28:09;20.52;;;3.47;;
72464;SDS011;60471;52.150;4.508;2023-09-19T06:30:38;14.95;;;3.13;;
72464;SDS011;60471;52.150;4.508;2023-09-19T06:33:05;15.10;;;3.33;;
72464;SDS011;60471;52.150;4.508;2023-09-19T06:35:33;16.45;;;3.78;;
72464;SDS011;60471;52.150;4.508;2023-09-19T06:38:03;21.40;;;3.63;;
72464;SDS011;60471;52.150;4.508;2023-09-19T06:40:29;16.17;;;3.63;;
72464;SDS011;60471;52.150;4.508;2023-09-19T06:42:56;20.00;;;3.65;;
72464;SDS011;60471;52.150;4.508;2023-09-19T06:45:23;25.20;;;4.10;;
72464;SDS011;60471;52.150;4.508;2023-09-19T06:47:52;15.32;;;3.15;;
72464;SDS011;60471;52.150;4.508;2023-09-19T06:50:23;15.05;;;3.45;;
72464;SDS011;60471;52.150;4.508;2023-09-19T06:52:50;17.85;;;3.42;;
72464;SDS011;60471;52.150;4.508;2023-09-19T06:55:21;18.40;;;3.30;;
72464;SDS011;60471;52.150;4.508;2023-09-19T06:57:50;22.45;;;3.88;;
72464;SDS011;60471;52.150;4.508;2023-09-19T07:00:17;25.85;;;4.22;;
72464;SDS011;60471;52.150;4.508;2023-09-19T07:02:59;21.30;;;3.42;;
72464;SDS011;60471;52.150;4.508;2023-09-19T07:05:33;21.27;;;4.22;;
72464;SDS011;60471;52.150;4.508;2023-09-19T07:08:05;18.67;;;3.58;;
72464;SDS011;60471;52.150;4.508;2023-09-19T07:10:33;20.75;;;3.70;;
72464;SDS011;60471;52.150;4.508;2023-09-19T07:13:00;15.32;;;3.13;;
72464;SDS011;60471;52.150;4.508;2023-09-19T07:15:32;16.08;;;3.60;;
72464;SDS011;60471;52.150;4.508;2023-09-19T07:18:01;22.23;;;4.20;;
72464;SDS011;60471;52.150;4.508;2023-09-19T07:20:28;22.60;;;4.20;;
72464;SDS011;60471;52.150;4.508;2023-09-19T07:22:57;23.40;;;4.22;;
72464;SDS011;60471;52.150;4.508;2023-09-19T07:25:27;17.63;;;3.67;;
72464;SDS011;60471;52.150;4.508;2023-09-19T07:27:57;17.42;;;3.75;;
72464;SDS011;60471;52.150;4.508;2023-09-19T07:30:27;21.50;;;3.90;;
72464;SDS011;60471;52.150;4.508;2023-09-19T07:32:54;18.40;;;4.10;;
72464;SDS011;60471;52.150;4.508;2023-09-19T07:35:20;17.30;;;3.40;;
72464;SDS011;60471;52.150;4.508;2023-09-19T07:37:47;24.05;;;3.90;;
72464;SDS011;60471;52.150;4.508;2023-09-19T07:40:15;22.75;;;3.88;;
72464;SDS011;60471;52.150;4.508;2023-09-19T07:42:42;21.77;;;4.15;;
72464;SDS011;60471;52.150;4.508;2023-09-19T07:45:10;16.73;;;3.60;;
72464;SDS011;60471;52.150;4.508;2023-09-19T07:50:13;21.17;;;4.38;;
72464;SDS011;60471;52.150;4.508;2023-09-19T07:52:41;20.35;;;3.92;;
72464;SDS011;60471;52.150;4.508;2023-09-19T07:55:08;18.75;;;3.78;;
72464;SDS011;60471;52.150;4.508;2023-09-19T07:57:37;18.33;;;3.83;;
72464;SDS011;60471;52.150;4.508;2023-09-19T08:00:03;20.02;;;4.30;;
72464;SDS011;60471;52.150;4.508;2023-09-19T08:02:36;27.08;;;4.13;;
72464;SDS011;60471;52.150;4.508;2023-09-19T08:05:04;26.10;;;4.10;;
72464;SDS011;60471;52.150;4.508;2023-09-19T08:07:32;21.17;;;4.15;;
72464;SDS011;60471;52.150;4.508;2023-09-19T08:09:58;18.45;;;4.00;;
72464;SDS011;60471;52.150;4.508;2023-09-19T08:12:25;23.35;;;4.10;;
72464;SDS011;60471;52.150;4.508;2023-09-19T08:14:51;17.40;;;4.43;;
72464;SDS011;60471;52.150;4.508;2023-09-19T08:17:17;20.08;;;4.22;;
72464;SDS011;60471;52.150;4.508;2023-09-19T08:19:45;18.13;;;3.75;;
72464;SDS011;60471;52.150;4.508;2023-09-19T08:22:12;21.75;;;3.75;;
72464;SDS011;60471;52.150;4.508;2023-09-19T08:24:38;19.48;;;4.47;;
72464;SDS011;60471;52.150;4.508;2023-09-19T08:27:04;20.38;;;4.18;;
72464;SDS011;60471;52.150;4.508;2023-09-19T08:29:33;16.67;;;3.75;;
72464;SDS011;60471;52.150;4.508;2023-09-19T08:32:00;21.58;;;3.97;;
72464;SDS011;60471;52.150;4.508;2023-09-19T08:34:27;19.88;;;4.03;;
72464;SDS011;60471;52.150;4.508;2023-09-19T08:36:53;19.15;;;4.07;;
72464;SDS011;60471;52.150;4.508;2023-09-19T08:39:22;11.05;;;2.83;;
72464;SDS011;60471;52.150;4.508;2023-09-19T08:41:49;20.63;;;3.90;;
72464;SDS011;60471;52.150;4.508;2023-09-19T08:44:15;22.00;;;4.15;;
72464;SDS011;60471;52.150;4.508;2023-09-19T08:46:42;17.05;;;3.50;;
72464;SDS011;60471;52.150;4.508;2023-09-19T08:49:14;19.55;;;4.13;;
72464;SDS011;60471;52.150;4.508;2023-09-19T08:51:59;15.25;;;3.25;;
72464;SDS011;60471;52.150;4.508;2023-09-19T08:54:37;19.52;;;4.03;;
72464;SDS011;60471;52.150;4.508;2023-09-19T08:57:06;15.75;;;3.55;;
72464;SDS011;60471;52.150;4.508;2023-09-19T08:59:39;20.20;;;3.47;;
72464;SDS011;60471;52.150;4.508;2023-09-19T09:02:09;22.73;;;4.32;;
72464;SDS011;60471;52.150;4.508;2023-09-19T09:04:41;20.33;;;4.10;;
72464;SDS011;60471;52.150;4.508;2023-09-19T09:07:10;21.40;;;4.20;;
72464;SDS011;60471;52.150;4.508;2023-09-19T09:09:42;19.67;;;4.32;;
72464;SDS011;60471;52.150;4.508;2023-09-19T09:12:12;22.08;;;4.07;;
72464;SDS011;60471;52.150;4.508;2023-09-19T09:14:44;21.15;;;3.83;;
72464;SDS011;60471;52.150;4.508;2023-09-19T09:17:16;20.92;;;3.72;;
72464;SDS011;60471;52.150;4.508;2023-09-19T09:19:46;25.27;;;4.40;;
72464;SDS011;60471;52.150;4.508;2023-09-19T09:22:15;18.50;;;4.20;;
72464;SDS011;60471;52.150;4.508;2023-09-19T09:24:55;24.52;;;4.30;;
72464;SDS011;60471;52.150;4.508;2023-09-19T09:27:24;23.58;;;4.40;;
72464;SDS011;60471;52.150;4.508;2023-09-19T09:29:51;24.42;;;3.78;;
72464;SDS011;60471;52.150;4.508;2023-09-19T09:32:27;17.02;;;3.42;;
72464;SDS011;60471;52.150;4.508;2023-09-19T09:34:56;19.90;;;3.78;;
72464;SDS011;60471;52.150;4.508;2023-09-19T09:37:26;24.73;;;3.50;;
72464;SDS011;60471;52.150;4.508;2023-09-19T09:39:56;18.02;;;3.65;;
72464;SDS011;60471;52.150;4.508;2023-09-19T09:42:43;17.95;;;3.97;;
72464;SDS011;60471;52.150;4.508;2023-09-19T09:45:16;21.67;;;3.78;;
72464;SDS011;60471;52.150;4.508;2023-09-19T09:48:00;16.38;;;3.50;;
72464;SDS011;60471;52.150;4.508;2023-09-19T09:50:33;19.15;;;3.15;;
72464;SDS011;60471;52.150;4.508;2023-09-19T09:56:05;17.83;;;3.28;;
72464;SDS011;60471;52.150;4.508;2023-09-19T09:58:36;20.23;;;3.72;;
72464;SDS011;60471;52.150;4.508;2023-09-19T10:01:14;15.65;;;3.25;;
72464;SDS011;60471;52.150;4.508;2023-09-19T10:03:42;17.98;;;3.08;;
72464;SDS011;60471;52.150;4.508;2023-09-19T10:06:14;15.43;;;3.20;;
72464;SDS011;60471;52.150;4.508;2023-09-19T10:08:59;16.02;;;3.40;;
72464;SDS011;60471;52.150;4.508;2023-09-19T10:11:46;25.50;;;4.15;;
72464;SDS011;60471;52.150;4.508;2023-09-19T10:14:24;17.95;;;3.75;;
72464;SDS011;60471;52.150;4.508;2023-09-19T10:16:58;17.42;;;3.25;;
72464;SDS011;60471;52.150;4.508;2023-09-19T10:19:30;14.93;;;2.53;;
72464;SDS011;60471;52.150;4.508;2023-09-19T10:22:16;13.77;;;2.80;;
72464;SDS011;60471;52.150;4.508;2023-09-19T10:24:49;14.23;;;2.40;;
72464;SDS011;60471;52.150;4.508;2023-09-19T10:27:19;18.85;;;3.33;;
72464;SDS011;60471;52.150;4.508;2023-09-19T10:29:48;20.05;;;3.10;;
72464;SDS011;60471;52.150;4.508;2023-09-19T10:34:49;14.63;;;2.58;;
72464;SDS011;60471;52.150;4.508;2023-09-19T10:37:16;14.98;;;2.58;;
72464;SDS011;60471;52.150;4.508;2023-09-19T10:39:46;14.23;;;3.00;;
72464;SDS011;60471;52.150;4.508;2023-09-19T10:42:16;24.13;;;3.03;;
72464;SDS011;60471;52.150;4.508;2023-09-19T10:44:51;16.92;;;2.75;;
72464;SDS011;60471;52.150;4.508;2023-09-19T10:47:21;18.38;;;2.95;;
72464;SDS011;60471;52.150;4.508;2023-09-19T10:49:50;15.15;;;3.38;;
72464;SDS011;60471;52.150;4.508;2023-09-19T10:52:17;16.40;;;2.72;;
72464;SDS011;60471;52.150;4.508;2023-09-19T10:54:51;13.70;;;2.25;;
72464;SDS011;60471;52.150;4.508;2023-09-19T10:57:23;13.98;;;2.30;;
72464;SDS011;60471;52.150;4.508;2023-09-19T11:00:08;15.43;;;2.85;;
72464;SDS011;60471;52.150;4.508;2023-09-19T11:05:59;15.65;;;2.88;;
72464;SDS011;60471;52.150;4.508;2023-09-19T11:08:54;13.23;;;2.60;;
72464;SDS011;60471;52.150;4.508;2023-09-19T11:30:32;15.60;;;2.58;;
72464;SDS011;60471;52.150;4.508;2023-09-19T11:43:46;12.77;;;2.67;;
72464;SDS011;60471;52.150;4.508;2023-09-19T11:49:18;13.93;;;2.88;;
72464;SDS011;60471;52.150;4.508;2023-09-19T11:51:52;14.68;;;2.63;;
72464;SDS011;60471;52.150;4.508;2023-09-19T11:54:19;12.95;;;2.33;;
72464;SDS011;60471;52.150;4.508;2023-09-19T11:56:53;10.75;;;2.22;;
72464;SDS011;60471;52.150;4.508;2023-09-19T11:59:21;12.13;;;2.22;;
72464;SDS011;60471;52.150;4.508;2023-09-19T12:01:54;13.35;;;2.50;;
72464;SDS011;60471;52.150;4.508;2023-09-19T12:04:34;13.65;;;2.75;;
72464;SDS011;60471;52.150;4.508;2023-09-19T12:07:07;20.27;;;2.97;;
72464;SDS011;60471;52.150;4.508;2023-09-19T12:09:41;14.10;;;2.92;;
72464;SDS011;60471;52.150;4.508;2023-09-19T12:12:10;14.45;;;2.67;;
72464;SDS011;60471;52.150;4.508;2023-09-19T12:14:43;12.10;;;2.70;;
72464;SDS011;60471;52.150;4.508;2023-09-19T12:17:15;10.68;;;2.10;;
72464;SDS011;60471;52.150;4.508;2023-09-19T12:19:54;14.45;;;2.58;;
72464;SDS011;60471;52.150;4.508;2023-09-19T12:22:22;13.32;;;2.30;;
72464;SDS011;60471;52.150;4.508;2023-09-19T12:24:48;17.20;;;2.97;;
72464;SDS011;60471;52.150;4.508;2023-09-19T12:27:16;11.50;;;2.55;;
72464;SDS011;60471;52.150;4.508;2023-09-19T12:32:11;14.88;;;2.67;;
72464;SDS011;60471;52.150;4.508;2023-09-19T12:34:38;16.25;;;2.60;;
72464;SDS011;60471;52.150;4.508;2023-09-19T12:37:12;10.77;;;2.60;;
72464;SDS011;60471;52.150;4.508;2023-09-19T12:39:46;12.40;;;2.75;;
72464;SDS011;60471;52.150;4.508;2023-09-19T12:42:20;12.82;;;2.13;;
72464;SDS011;60471;52.150;4.508;2023-09-19T12:44:55;13.00;;;2.35;;
72464;SDS011;60471;52.150;4.508;2023-09-19T12:47:23;11.77;;;2.33;;
72464;SDS011;60471;52.150;4.508;2023-09-19T12:50:10;13.65;;;2.55;;
72464;SDS011;60471;52.150;4.508;2023-09-19T12:52:48;10.95;;;2.42;;
72464;SDS011;60471;52.150;4.508;2023-09-19T12:55:22;16.27;;;2.58;;
72464;SDS011;60471;52.150;4.508;2023-09-19T12:58:11;9.60;;;2.28;;
72464;SDS011;60471;52.150;4.508;2023-09-19T13:00:39;16.33;;;3.03;;
72464;SDS011;60471;52.150;4.508;2023-09-19T13:05:51;14.20;;;2.92;;
72464;SDS011;60471;52.150;4.508;2023-09-19T13:08:24;11.30;;;2.53;;
72464;SDS011;60471;52.150;4.508;2023-09-19T13:13:36;11.88;;;2.35;;
72464;SDS011;60471;52.150;4.508;2023-09-19T13:16:04;13.00;;;2.70;;
72464;SDS011;60471;52.150;4.508;2023-09-19T13:18:43;13.57;;;2.90;;
72464;SDS011;60471;52.150;4.508;2023-09-19T13:21:12;14.60;;;2.85;;
72464;SDS011;60471;52.150;4.508;2023-09-19T13:26:51;13.32;;;2.80;;
72464;SDS011;60471;52.150;4.508;2023-09-19T13:29:17;14.10;;;2.58;;
72464;SDS011;60471;52.150;4.508;2023-09-19T13:31:50;15.95;;;3.22;;
72464;SDS011;60471;52.150;4.508;2023-09-19T13:34:19;16.45;;;2.80;;
72464;SDS011;60471;52.150;4.508;2023-09-19T13:36:46;17.25;;;3.40;;
72464;SDS011;60471;52.150;4.508;2023-09-19T13:39:16;20.52;;;3.20;;
72464;SDS011;60471;52.150;4.508;2023-09-19T13:41:49;15.27;;;3.35;;
72464;SDS011;60471;52.150;4.508;2023-09-19T13:44:15;13.23;;;3.55;;
72464;SDS011;60471;52.150;4.508;2023-09-19T13:46:43;19.90;;;3.63;;
72464;SDS011;60471;52.150;4.508;2023-09-19T13:49:11;16.52;;;3.60;;
72464;SDS011;60471;52.150;4.508;2023-09-19T13:51:37;17.08;;;3.50;;
72464;SDS011;60471;52.150;4.508;2023-09-19T13:54:04;21.40;;;3.75;;
72464;SDS011;60471;52.150;4.508;2023-09-19T13:56:31;22.65;;;3.70;;
72464;SDS011;60471;52.150;4.508;2023-09-19T13:58:57;18.52;;;3.58;;
72464;SDS011;60471;52.150;4.508;2023-09-19T14:01:23;18.35;;;3.67;;
72464;SDS011;60471;52.150;4.508;2023-09-19T14:03:52;18.50;;;4.05;;
72464;SDS011;60471;52.150;4.508;2023-09-19T14:06:19;17.20;;;3.92;;
72464;SDS011;60471;52.150;4.508;2023-09-19T14:08:46;21.98;;;5.60;;
72464;SDS011;60471;52.150;4.508;2023-09-19T14:11:15;19.20;;;4.38;;
72464;SDS011;60471;52.150;4.508;2023-09-19T14:13:42;18.13;;;4.50;;
72464;SDS011;60471;52.150;4.508;2023-09-19T14:16:15;20.67;;;4.03;;
72464;SDS011;60471;52.150;4.508;2023-09-19T14:18:44;16.05;;;4.15;;
72464;SDS011;60471;52.150;4.508;2023-09-19T14:21:12;16.40;;;3.30;;
72464;SDS011;60471;52.150;4.508;2023-09-19T14:23:40;16.10;;;3.28;;
72464;SDS011;60471;52.150;4.508;2023-09-19T14:26:11;16.58;;;3.53;;
72464;SDS011;60471;52.150;4.508;2023-09-19T14:28:37;18.63;;;3.75;;
72464;SDS011;60471;52.150;4.508;2023-09-19T14:31:08;21.02;;;3.78;;
72464;SDS011;60471;52.150;4.508;2023-09-19T14:33:37;20.90;;;4.68;;
72464;SDS011;60471;52.150;4.508;2023-09-19T14:36:07;19.25;;;3.60;;
72464;SDS011;60471;52.150;4.508;2023-09-19T14:38:36;18.80;;;3.25;;
72464;SDS011;60471;52.150;4.508;2023-09-19T14:41:04;18.67;;;4.03;;
72464;SDS011;60471;52.150;4.508;2023-09-19T14:43:32;12.68;;;3.40;;
72464;SDS011;60471;52.150;4.508;2023-09-19T14:46:07;17.70;;;3.80;;
72464;SDS011;60471;52.150;4.508;2023-09-19T14:48:35;17.63;;;3.40;;
72464;SDS011;60471;52.150;4.508;2023-09-19T14:51:06;18.75;;;4.07;;
72464;SDS011;60471;52.150;4.508;2023-09-19T14:53:37;16.70;;;3.50;;
72464;SDS011;60471;52.150;4.508;2023-09-19T14:56:04;17.65;;;3.80;;
72464;SDS011;60471;52.150;4.508;2023-09-19T14:58:33;19.08;;;4.43;;
72464;SDS011;60471;52.150;4.508;2023-09-19T15:01:04;20.55;;;4.65;;
72464;SDS011;60471;52.150;4.508;2023-09-19T15:03:33;26.80;;;5.90;;
72464;SDS011;60471;52.150;4.508;2023-09-19T15:06:01;19.70;;;4.57;;
72464;SDS011;60471;52.150;4.508;2023-09-19T15:08:34;22.30;;;4.90;;
72464;SDS011;60471;52.150;4.508;2023-09-19T15:11:07;23.42;;;4.68;;
72464;SDS011;60471;52.150;4.508;2023-09-19T15:13:33;19.90;;;4.45;;
72464;SDS011;60471;52.150;4.508;2023-09-19T15:16:01;19.15;;;4.45;;
72464;SDS011;60471;52.150;4.508;2023-09-19T15:18:37;12.27;;;4.00;;
72464;SDS011;60471;52.150;4.508;2023-09-19T15:21:07;22.38;;;5.28;;
72464;SDS011;60471;52.150;4.508;2023-09-19T15:23:36;21.98;;;4.70;;
72464;SDS011;60471;52.150;4.508;2023-09-19T15:26:05;19.52;;;4.80;;
72464;SDS011;60471;52.150;4.508;2023-09-19T15:28:34;19.83;;;4.45;;
72464;SDS011;60471;52.150;4.508;2023-09-19T15:31:02;22.98;;;5.25;;
72464;SDS011;60471;52.150;4.508;2023-09-19T15:33:31;26.20;;;5.28;;
72464;SDS011;60471;52.150;4.508;2023-09-19T15:36:08;20.15;;;5.53;;
72464;SDS011;60471;52.150;4.508;2023-09-19T15:41:35;26.25;;;5.38;;
72464;SDS011;60471;52.150;4.508;2023-09-19T15:44:14;22.63;;;4.57;;
72464;SDS011;60471;52.150;4.508;2023-09-19T15:46:42;24.48;;;5.78;;
72464;SDS011;60471;52.150;4.508;2023-09-19T15:49:09;23.63;;;4.97;;
72464;SDS011;60471;52.150;4.508;2023-09-19T15:51:37;18.77;;;4.40;;
72464;SDS011;60471;52.150;4.508;2023-09-19T15:54:08;23.35;;;4.95;;
72464;SDS011;60471;52.150;4.508;2023-09-19T15:56:42;20.98;;;4.68;;
72464;SDS011;60471;52.150;4.508;2023-09-19T15:59:10;21.38;;;4.53;;